createdAt,value
2017-10-23T00:01:06.668Z,7.12
2017-10-23T00:02:06.558Z,7.23
2017-10-23T00:03:59.553Z,7.13
2017-10-23T00:04:59.946Z,7.17
2017-10-23T00:06:52.571Z,7.20
2017-10-23T00:07:52.188Z,7.29
2017-10-23T00:09:45.480Z,7.24
2017-10-23T00:10:45.067Z,7.12
2017-10-23T00:13:38.101Z,7.27
2017-10-23T00:15:33.008Z,7.29
2017-10-23T00:16:32.864Z,7.24
2017-10-23T00:18:25.797Z,7.19
2017-10-23T00:19:25.770Z,7.19
2017-10-23T00:21:19.266Z,7.32
2017-10-23T00:22:18.842Z,7.17
2017-10-23T00:24:11.712Z,7.15
2017-10-23T00:25:11.671Z,7.26
2017-10-23T00:27:04.785Z,7.32
2017-10-23T00:28:04.288Z,7.27
2017-10-23T00:29:57.702Z,7.20
2017-10-23T00:30:58.068Z,7.22
2017-10-23T00:32:52.200Z,7.09
2017-10-23T00:33:52.139Z,7.09
2017-10-23T00:35:45.306Z,7.07
2017-10-23T00:36:44.726Z,7.29
2017-10-23T00:38:38.072Z,7.24
2017-10-23T00:39:37.616Z,7.17
2017-10-23T00:41:31.133Z,7.13
2017-10-23T00:42:30.646Z,7.09
2017-10-23T00:44:23.941Z,7.12
2017-10-23T00:45:23.897Z,7.16
2017-10-23T00:47:17.000Z,7.22
2017-10-23T00:48:16.819Z,7.23
2017-10-23T00:50:11.395Z,7.19
2017-10-23T00:51:11.292Z,7.23
2017-10-23T00:53:04.589Z,7.34
2017-10-23T00:54:04.291Z,7.42
2017-10-23T00:55:57.484Z,7.45
2017-10-23T00:56:57.101Z,7.42
2017-10-23T00:58:50.440Z,7.58
2017-10-23T00:59:50.378Z,7.59
2017-10-23T01:01:43.653Z,7.55
2017-10-23T01:02:43.271Z,7.52
2017-10-23T01:04:36.597Z,7.62
2017-10-23T01:05:36.226Z,7.66
2017-10-23T01:07:30.137Z,7.60
2017-10-23T01:08:29.689Z,7.56
2017-10-23T01:10:24.526Z,7.66
2017-10-23T01:11:24.148Z,7.58
2017-10-23T01:13:17.553Z,7.62
2017-10-23T01:14:17.115Z,7.59
2017-10-23T01:16:11.971Z,7.69
2017-10-23T01:17:11.632Z,7.67
2017-10-23T01:19:05.513Z,7.82
2017-10-23T01:20:05.439Z,7.84
2017-10-23T01:22:00.007Z,7.90
2017-10-23T01:22:59.578Z,7.94
2017-10-23T01:24:52.877Z,7.90
2017-10-23T01:25:52.455Z,7.92
2017-10-23T01:27:45.949Z,7.89
2017-10-23T01:28:45.821Z,7.89
2017-10-23T01:30:38.852Z,7.92
2017-10-23T01:31:38.729Z,7.97
2017-10-23T01:33:31.725Z,7.87
2017-10-23T01:34:31.404Z,7.87
2017-10-23T01:36:24.768Z,7.87
2017-10-23T01:37:24.375Z,7.82
2017-10-23T01:39:18.075Z,7.82
2017-10-23T01:40:17.675Z,7.82
2017-10-23T01:42:12.218Z,7.81
2017-10-23T01:43:12.025Z,7.82
2017-10-23T01:45:05.200Z,7.79
2017-10-23T01:46:05.086Z,7.90
2017-10-23T01:47:58.566Z,7.96
2017-10-23T01:48:57.756Z,7.87
2017-10-23T01:50:50.839Z,7.82
2017-10-23T01:51:50.938Z,7.87
2017-10-23T01:53:45.528Z,7.84
2017-10-23T01:54:45.126Z,7.79
2017-10-23T01:56:38.537Z,7.87
2017-10-23T01:57:38.151Z,7.92
2017-10-23T01:59:31.392Z,7.85
2017-10-23T02:00:31.431Z,7.84
2017-10-23T02:02:24.417Z,7.87
2017-10-23T02:03:24.080Z,7.93
2017-10-23T02:05:17.388Z,7.84
2017-10-23T02:06:17.010Z,7.78
2017-10-23T02:08:11.766Z,7.82
2017-10-23T02:09:11.329Z,7.82
2017-10-23T02:11:04.664Z,7.75
2017-10-23T02:12:04.680Z,7.82
2017-10-23T02:13:57.697Z,7.84
2017-10-23T02:14:57.231Z,7.82
2017-10-23T02:16:50.617Z,7.72
2017-10-23T02:17:50.195Z,7.66
2017-10-23T02:19:43.568Z,7.78
2017-10-23T02:20:43.219Z,7.74
2017-10-23T02:22:36.463Z,7.78
2017-10-23T02:23:36.134Z,7.69
2017-10-23T02:25:29.496Z,7.84
2017-10-23T02:26:29.295Z,7.84
2017-10-23T02:28:23.951Z,7.69
2017-10-23T02:29:23.804Z,7.69
2017-10-23T02:31:16.893Z,7.78
2017-10-23T02:32:16.862Z,7.81
2017-10-23T02:34:09.786Z,7.81
2017-10-23T02:35:09.458Z,7.69
2017-10-23T02:37:02.907Z,7.75
2017-10-23T02:38:02.405Z,7.69
2017-10-23T02:39:55.810Z,7.74
2017-10-23T02:40:55.637Z,7.72
2017-10-23T02:42:50.230Z,7.71
2017-10-23T02:43:50.003Z,7.63
2017-10-23T02:45:43.793Z,7.59
2017-10-23T02:46:43.360Z,7.63
2017-10-23T02:48:38.199Z,7.59
2017-10-23T02:49:37.890Z,7.72
2017-10-23T02:51:31.266Z,7.69
2017-10-23T02:52:31.184Z,7.69
2017-10-23T02:54:24.204Z,7.71
2017-10-23T02:55:23.811Z,7.75
2017-10-23T02:57:17.093Z,7.72
2017-10-23T02:58:16.699Z,7.72
2017-10-23T03:00:10.098Z,7.74
2017-10-23T03:01:09.607Z,7.69
2017-10-23T03:03:02.640Z,7.79
2017-10-23T03:04:02.833Z,7.74
2017-10-23T03:05:57.496Z,7.89
2017-10-23T03:06:57.413Z,7.79
2017-10-23T03:08:50.456Z,7.75
2017-10-23T03:09:49.967Z,7.72
2017-10-23T03:11:43.450Z,7.74
2017-10-23T03:12:43.150Z,7.72
2017-10-23T03:14:36.282Z,7.69
2017-10-23T03:15:36.213Z,7.84
2017-10-23T03:17:30.868Z,7.75
2017-10-23T03:18:30.654Z,7.84
2017-10-23T03:20:23.801Z,7.84
2017-10-23T03:21:23.240Z,7.82
2017-10-23T03:23:16.648Z,7.79
2017-10-23T03:24:16.544Z,7.81
2017-10-23T03:26:09.534Z,7.90
2017-10-23T03:27:09.244Z,7.85
2017-10-23T03:29:02.539Z,7.84
2017-10-23T03:30:02.489Z,7.84
2017-10-23T03:31:57.064Z,7.85
2017-10-23T03:32:56.928Z,7.82
2017-10-23T03:34:50.061Z,7.87
2017-10-23T03:35:49.695Z,7.87
2017-10-23T03:37:42.935Z,7.92
2017-10-23T03:38:42.891Z,7.85
2017-10-23T03:40:35.954Z,7.84
2017-10-23T03:41:35.482Z,7.89
2017-10-23T03:43:28.823Z,7.89
2017-10-23T03:44:28.765Z,7.96
2017-10-23T03:46:21.861Z,7.81
2017-10-23T03:47:21.413Z,7.92
2017-10-23T03:49:14.396Z,7.87
2017-10-23T03:50:15.168Z,7.87
2017-10-23T03:52:09.072Z,7.89
2017-10-23T03:53:08.756Z,7.93
2017-10-23T03:55:03.666Z,7.82
2017-10-23T03:56:03.217Z,7.84
2017-10-23T03:57:56.582Z,7.79
2017-10-23T03:58:56.148Z,7.82
2017-10-23T04:00:49.600Z,7.84
2017-10-23T04:01:49.239Z,7.79
2017-10-23T04:03:42.622Z,7.78
2017-10-23T04:04:42.158Z,7.87
2017-10-23T04:06:36.119Z,7.78
2017-10-23T04:07:35.677Z,7.78
2017-10-23T04:09:30.734Z,7.79
2017-10-23T04:10:30.280Z,7.85
2017-10-23T04:12:23.612Z,7.85
2017-10-23T04:13:23.250Z,7.84
2017-10-23T04:15:16.684Z,7.75
2017-10-23T04:16:16.521Z,7.72
2017-10-23T04:18:09.375Z,7.75
2017-10-23T04:19:09.076Z,7.71
2017-10-23T04:21:02.655Z,7.72
2017-10-23T04:22:02.283Z,7.67
2017-10-23T04:23:02.221Z,7.72
2017-10-23T04:24:02.834Z,7.72
2017-10-23T04:25:02.205Z,7.77
2017-10-23T04:26:02.450Z,7.79
2017-10-23T04:27:02.044Z,7.72
2017-10-23T04:28:02.011Z,7.72
2017-10-23T04:29:01.956Z,7.74
2017-10-23T04:30:01.910Z,7.74
2017-10-23T04:31:01.865Z,7.77
2017-10-23T04:32:01.823Z,7.84
2017-10-23T04:33:01.775Z,7.84
2017-10-23T04:34:01.737Z,7.82
2017-10-23T04:35:01.701Z,7.78
2017-10-23T04:36:01.657Z,7.81
2017-10-23T04:37:01.645Z,7.87
2017-10-23T04:38:01.614Z,7.89
2017-10-23T04:39:01.523Z,7.96
2017-10-23T04:40:01.493Z,7.92
2017-10-23T04:41:01.453Z,7.87
2017-10-23T04:42:01.413Z,7.93
2017-10-23T04:43:01.358Z,7.96
2017-10-23T04:44:01.335Z,7.93
2017-10-23T04:45:01.282Z,7.97
2017-10-23T04:46:01.235Z,7.96
2017-10-23T04:47:01.196Z,7.93
2017-10-23T04:48:01.162Z,7.94
2017-10-23T04:49:01.133Z,7.93
2017-10-23T04:50:01.081Z,7.92
2017-10-23T04:51:01.066Z,8.00
2017-10-23T04:52:00.992Z,7.94
2017-10-23T04:53:00.972Z,7.96
2017-10-23T04:54:00.908Z,7.92
2017-10-23T04:55:00.879Z,7.99
2017-10-23T04:56:00.840Z,7.97
2017-10-23T04:57:00.804Z,7.92
2017-10-23T04:58:00.746Z,7.92
2017-10-23T04:59:00.725Z,7.92
2017-10-23T05:00:00.653Z,7.85
2017-10-23T05:01:00.648Z,7.97
2017-10-23T05:02:00.583Z,7.97
2017-10-23T05:03:00.543Z,7.87
2017-10-23T05:04:00.527Z,7.94
2017-10-23T05:05:00.458Z,7.92
2017-10-23T05:06:00.432Z,7.82
2017-10-23T05:07:00.398Z,7.90
2017-10-23T05:08:00.341Z,7.89
2017-10-23T05:09:00.311Z,7.90
2017-10-23T05:10:00.251Z,7.90
2017-10-23T05:11:00.236Z,7.93
2017-10-23T05:12:00.219Z,7.87
2017-10-23T05:13:00.163Z,7.90
2017-10-23T05:14:00.102Z,7.89
2017-10-23T05:15:00.047Z,7.81
2017-10-23T05:16:00.022Z,7.84
2017-10-23T05:17:00.027Z,7.93
2017-10-23T05:17:59.953Z,7.82
2017-10-23T05:18:59.870Z,7.79
2017-10-23T05:19:59.863Z,7.81
2017-10-23T05:20:59.815Z,7.85
2017-10-23T05:21:59.766Z,7.84
2017-10-23T05:22:59.711Z,7.81
2017-10-23T05:23:59.683Z,7.84
2017-10-23T05:24:59.718Z,7.90
2017-10-23T05:25:59.582Z,7.90
2017-10-23T05:26:59.600Z,7.84
2017-10-23T05:27:59.525Z,7.85
2017-10-23T05:28:59.472Z,7.79
2017-10-23T05:29:59.443Z,7.87
2017-10-23T05:30:59.423Z,7.85
2017-10-23T05:31:59.337Z,7.87
2017-10-23T05:32:59.296Z,7.82
2017-10-23T05:33:59.251Z,7.85
2017-10-23T05:34:59.232Z,7.84
2017-10-23T05:35:59.229Z,7.87
2017-10-23T05:36:59.130Z,7.84
2017-10-23T05:37:59.134Z,7.87
2017-10-23T05:38:59.043Z,7.87
2017-10-23T05:39:59.032Z,7.84
2017-10-23T05:40:59.053Z,7.89
2017-10-23T05:41:58.924Z,7.87
2017-10-23T05:42:58.908Z,7.92
2017-10-23T05:43:58.830Z,7.87
2017-10-23T05:44:58.799Z,7.87
2017-10-23T05:45:58.849Z,7.87
2017-10-23T05:46:58.706Z,7.89
2017-10-23T05:47:58.673Z,7.92
2017-10-23T05:48:58.628Z,7.96
2017-10-23T05:49:58.603Z,7.87
2017-10-23T05:50:58.543Z,7.96
2017-10-23T05:51:58.500Z,7.84
2017-10-23T05:52:58.464Z,7.96
2017-10-23T05:53:58.474Z,7.90
2017-10-23T05:54:58.403Z,7.84
2017-10-23T05:55:58.356Z,7.90
2017-10-23T05:56:58.294Z,7.94
2017-10-23T05:57:58.262Z,7.93
2017-10-23T05:58:58.230Z,7.87
2017-10-23T05:59:58.179Z,7.85
2017-10-23T06:00:58.149Z,7.94
2017-10-23T06:01:58.096Z,7.84
2017-10-23T06:02:58.050Z,7.89
2017-10-23T06:03:58.020Z,7.99
2017-10-23T06:04:57.973Z,7.93
2017-10-23T06:05:57.936Z,7.85
2017-10-23T06:06:57.888Z,7.89
2017-10-23T06:07:57.843Z,7.90
2017-10-23T06:08:57.811Z,7.92
2017-10-23T06:09:57.757Z,7.97
2017-10-23T06:10:57.782Z,7.93
2017-10-23T06:11:57.732Z,7.89
2017-10-23T06:12:57.653Z,7.96
2017-10-23T06:13:57.604Z,7.90
2017-10-23T06:14:57.560Z,7.96
2017-10-23T06:15:57.516Z,7.97
2017-10-23T06:16:57.468Z,8.02
2017-10-23T06:17:57.484Z,7.99
2017-10-23T06:18:57.390Z,8.08
2017-10-23T06:19:57.349Z,8.11
2017-10-23T06:20:57.310Z,8.02
2017-10-23T06:21:57.276Z,7.99
2017-10-23T06:22:57.258Z,8.08
2017-10-23T06:23:57.183Z,8.10
2017-10-23T06:24:57.142Z,8.11
2017-10-23T06:25:57.097Z,8.04
2017-10-23T06:26:57.056Z,8.14
2017-10-23T06:27:57.020Z,8.07
2017-10-23T06:28:57.057Z,8.00
2017-10-23T06:29:56.960Z,7.99
2017-10-23T06:30:56.915Z,8.04
2017-10-23T06:31:56.874Z,8.12
2017-10-23T06:32:56.856Z,7.99
2017-10-23T06:33:56.777Z,8.14
2017-10-23T06:34:56.734Z,8.14
2017-10-23T06:35:56.724Z,8.14
2017-10-23T06:36:56.644Z,8.14
2017-10-23T06:37:56.604Z,8.11
2017-10-23T06:38:56.568Z,8.12
2017-10-23T06:39:56.516Z,8.11
2017-10-23T06:40:56.485Z,8.29
2017-10-23T06:41:56.444Z,8.28
2017-10-23T06:42:56.520Z,8.21
2017-10-23T06:43:56.379Z,8.22
2017-10-23T06:44:56.338Z,8.21
2017-10-23T06:45:56.294Z,8.17
2017-10-23T06:46:56.230Z,8.15
2017-10-23T06:47:56.224Z,8.26
2017-10-23T06:48:56.180Z,8.26
2017-10-23T06:49:56.116Z,8.26
2017-10-23T06:50:56.063Z,8.26
2017-10-23T06:51:56.028Z,8.28
2017-10-23T06:52:55.996Z,8.14
2017-10-23T06:53:55.956Z,8.20
2017-10-23T06:54:55.917Z,8.14
2017-10-23T06:55:55.868Z,8.18
2017-10-23T06:56:55.881Z,8.08
2017-10-23T06:57:55.827Z,8.12
2017-10-23T06:58:55.737Z,8.21
2017-10-23T06:59:55.700Z,8.17
2017-10-23T07:00:55.662Z,8.11
2017-10-23T07:01:55.609Z,8.22
2017-10-23T07:02:55.596Z,8.12
2017-10-23T07:03:55.556Z,8.15
2017-10-23T07:04:55.501Z,8.25
2017-10-23T07:05:55.455Z,8.29
2017-10-23T07:06:55.410Z,8.22
2017-10-23T07:07:55.376Z,8.37
2017-10-23T07:08:55.342Z,8.33
2017-10-23T07:09:55.283Z,8.33
2017-10-23T07:10:55.244Z,8.29
2017-10-23T07:11:55.208Z,8.33
2017-10-23T07:12:55.231Z,8.32
2017-10-23T07:13:55.134Z,8.36
2017-10-23T07:14:55.107Z,8.53
2017-10-23T07:15:55.054Z,8.55
2017-10-23T07:16:55.036Z,8.47
2017-10-23T07:17:54.968Z,8.53
2017-10-23T07:18:54.924Z,8.66
2017-10-23T07:19:54.892Z,8.60
2017-10-23T07:20:54.849Z,8.47
2017-10-23T07:21:54.811Z,8.57
2017-10-23T07:22:54.796Z,8.62
2017-10-23T07:23:54.721Z,8.68
2017-10-23T07:24:54.667Z,8.63
2017-10-23T07:25:54.645Z,8.62
2017-10-23T07:26:54.617Z,8.63
2017-10-23T07:27:54.571Z,8.66
2017-10-23T07:28:54.550Z,8.63
2017-10-23T07:29:54.466Z,8.65
2017-10-23T07:30:54.440Z,8.63
2017-10-23T07:31:54.398Z,8.63
2017-10-23T07:32:54.396Z,8.57
2017-10-23T07:33:54.311Z,8.60
2017-10-23T07:34:54.270Z,8.63
2017-10-23T07:35:54.223Z,8.60
2017-10-23T07:36:54.241Z,8.48
2017-10-23T07:37:54.141Z,8.66
2017-10-23T07:38:54.109Z,8.58
2017-10-23T07:39:54.072Z,8.65
2017-10-23T07:40:54.026Z,8.51
2017-10-23T07:41:53.995Z,8.51
2017-10-23T07:42:53.939Z,8.53
2017-10-23T07:43:53.910Z,8.55
2017-10-23T07:44:53.864Z,8.47
2017-10-23T07:45:53.827Z,8.44
2017-10-23T07:46:53.785Z,8.58
2017-10-23T07:47:53.749Z,8.62
2017-10-23T07:48:53.708Z,8.65
2017-10-23T07:49:53.664Z,8.62
2017-10-23T07:50:53.620Z,8.71
2017-10-23T07:51:53.596Z,8.78
2017-10-23T07:52:53.551Z,8.71
2017-10-23T07:53:53.536Z,8.68
2017-10-23T07:54:53.452Z,8.71
2017-10-23T07:55:53.426Z,8.73
2017-10-23T07:56:53.362Z,8.76
2017-10-23T07:57:53.372Z,8.68
2017-10-23T07:58:53.292Z,8.69
2017-10-23T07:59:53.245Z,8.63
2017-10-23T08:00:53.230Z,8.66
2017-10-23T08:01:53.170Z,8.71
2017-10-23T08:02:53.142Z,8.58
2017-10-23T08:03:53.121Z,8.62
2017-10-23T08:04:53.060Z,8.68
2017-10-23T08:05:53.017Z,8.68
2017-10-23T08:06:52.993Z,8.68
2017-10-23T08:07:52.918Z,8.68
2017-10-23T08:08:52.886Z,8.75
2017-10-23T08:09:52.840Z,8.58
2017-10-23T08:10:52.805Z,8.71
2017-10-23T08:11:52.788Z,8.65
2017-10-23T08:12:52.714Z,8.58
2017-10-23T08:13:52.697Z,8.53
2017-10-23T08:14:52.649Z,8.58
2017-10-23T08:15:52.594Z,8.63
2017-10-23T08:16:52.555Z,8.62
2017-10-23T08:17:52.531Z,8.63
2017-10-23T08:18:52.485Z,8.65
2017-10-23T08:19:52.468Z,8.68
2017-10-23T08:20:52.438Z,8.75
2017-10-23T08:21:52.353Z,8.66
2017-10-23T08:22:52.310Z,8.72
2017-10-23T08:23:52.272Z,8.69
2017-10-23T08:24:52.224Z,8.79
2017-10-23T08:25:52.242Z,8.94
2017-10-23T08:26:52.152Z,8.88
2017-10-23T08:27:52.112Z,8.86
2017-10-23T08:28:52.079Z,8.99
2017-10-23T08:29:52.054Z,8.94
2017-10-23T08:30:51.997Z,9.12
2017-10-23T08:31:51.947Z,9.05
2017-10-23T08:32:51.911Z,9.13
2017-10-23T08:33:51.875Z,9.16
2017-10-23T08:34:51.824Z,9.09
2017-10-23T08:35:51.791Z,9.21
2017-10-23T08:36:51.733Z,9.12
2017-10-23T08:37:51.697Z,9.10
2017-10-23T08:38:51.660Z,9.21
2017-10-23T08:39:51.616Z,9.24
2017-10-23T08:40:51.590Z,9.42
2017-10-23T08:41:51.533Z,9.18
2017-10-23T08:42:51.510Z,9.42
2017-10-23T08:43:51.485Z,9.40
2017-10-23T08:44:51.431Z,9.32
2017-10-23T08:45:51.408Z,9.27
2017-10-23T08:46:51.329Z,9.38
2017-10-23T08:47:51.297Z,9.40
2017-10-23T08:48:51.256Z,9.39
2017-10-23T08:49:51.214Z,9.32
2017-10-23T08:50:51.174Z,9.34
2017-10-23T08:51:51.139Z,9.32
2017-10-23T08:52:51.096Z,9.45
2017-10-23T08:53:51.043Z,9.38
2017-10-23T08:54:51.030Z,9.43
2017-10-23T08:55:50.967Z,9.42
2017-10-23T08:56:50.943Z,9.39
2017-10-23T08:57:50.891Z,9.46
2017-10-23T08:58:50.850Z,9.40
2017-10-23T08:59:50.806Z,9.52
2017-10-23T09:00:50.775Z,9.50
2017-10-23T09:01:50.732Z,9.53
2017-10-23T09:02:50.699Z,9.57
2017-10-23T09:03:50.646Z,9.49
2017-10-23T09:04:50.616Z,9.45
2017-10-23T09:05:50.581Z,9.48
2017-10-23T09:06:50.527Z,9.48
2017-10-23T09:07:50.514Z,9.53
2017-10-23T09:08:50.484Z,9.57
2017-10-23T09:09:50.434Z,9.61
2017-10-23T09:10:50.382Z,9.48
2017-10-23T09:11:50.349Z,9.57
2017-10-23T09:12:50.296Z,9.60
2017-10-23T09:13:50.257Z,9.49
2017-10-23T09:14:50.222Z,9.34
2017-10-23T09:15:50.174Z,9.32
2017-10-23T09:16:50.142Z,9.34
2017-10-23T09:17:50.119Z,9.30
2017-10-23T09:18:50.187Z,9.45
2017-10-23T09:19:50.022Z,9.45
2017-10-23T09:20:49.969Z,9.48
2017-10-23T09:21:49.946Z,9.40
2017-10-23T09:22:49.909Z,9.38
2017-10-23T09:23:49.855Z,9.48
2017-10-23T09:24:49.854Z,9.45
2017-10-23T09:25:49.783Z,9.38
2017-10-23T09:26:49.730Z,9.52
2017-10-23T09:27:49.705Z,9.42
2017-10-23T09:28:49.693Z,9.52
2017-10-23T09:29:49.623Z,9.57
2017-10-23T09:30:49.589Z,9.52
2017-10-23T09:31:49.541Z,9.60
2017-10-23T09:32:49.497Z,9.58
2017-10-23T09:33:49.464Z,9.48
2017-10-23T09:34:49.473Z,9.57
2017-10-23T09:35:49.378Z,9.60
2017-10-23T09:36:49.354Z,9.50
2017-10-23T09:37:49.294Z,9.34
2017-10-23T09:38:49.267Z,9.49
2017-10-23T09:39:49.222Z,9.49
2017-10-23T09:40:49.205Z,9.58
2017-10-23T09:41:49.137Z,9.64
2017-10-23T09:42:49.094Z,9.60
2017-10-23T09:43:49.078Z,9.58
2017-10-23T09:44:49.040Z,9.58
2017-10-23T09:45:49.030Z,9.48
2017-10-23T09:46:48.952Z,9.61
2017-10-23T09:47:48.903Z,9.58
2017-10-23T09:48:48.875Z,9.58
2017-10-23T09:49:48.828Z,9.61
2017-10-23T09:50:48.782Z,9.43
2017-10-23T09:51:48.746Z,9.57
2017-10-23T09:52:48.698Z,9.63
2017-10-23T09:53:48.668Z,9.61
2017-10-23T09:54:48.663Z,9.60
2017-10-23T09:55:48.622Z,9.66
2017-10-23T09:56:48.545Z,9.61
2017-10-23T09:57:48.511Z,9.66
2017-10-23T09:58:48.530Z,9.66
2017-10-23T09:59:48.433Z,9.78
2017-10-23T10:00:48.459Z,9.68
2017-10-23T10:01:48.344Z,9.76
2017-10-23T10:02:48.315Z,9.78
2017-10-23T10:03:48.281Z,9.96
2017-10-23T10:04:48.221Z,9.79
2017-10-23T10:05:48.188Z,9.79
2017-10-23T10:06:48.153Z,9.71
2017-10-23T10:07:48.103Z,9.85
2017-10-23T10:08:48.122Z,9.96
2017-10-23T10:09:48.025Z,9.76
2017-10-23T10:10:47.991Z,9.76
2017-10-23T10:11:47.957Z,9.91
2017-10-23T10:12:47.914Z,9.97
2017-10-23T10:13:47.869Z,10.10
2017-10-23T10:14:47.849Z,10.06
2017-10-23T10:15:47.809Z,10.06
2017-10-23T10:16:47.771Z,10.14
2017-10-23T10:17:47.719Z,10.26
2017-10-23T10:18:47.690Z,10.19
2017-10-23T10:19:47.686Z,10.46
2017-10-23T10:20:47.626Z,10.55
2017-10-23T10:21:47.574Z,10.66
2017-10-23T10:22:47.527Z,10.55
2017-10-23T10:23:47.495Z,10.55
2017-10-23T10:24:47.439Z,10.53
2017-10-23T10:25:47.401Z,10.60
2017-10-23T10:26:47.404Z,10.52
2017-10-23T10:27:47.322Z,10.39
2017-10-23T10:28:47.322Z,10.47
2017-10-23T10:29:47.251Z,10.34
2017-10-23T10:30:47.197Z,10.40
2017-10-23T10:31:47.175Z,10.37
2017-10-23T10:32:47.145Z,10.32
2017-10-23T10:33:47.097Z,10.40
2017-10-23T10:34:47.048Z,10.44
2017-10-23T10:35:47.002Z,10.43
2017-10-23T10:36:46.996Z,10.37
2017-10-23T10:37:46.941Z,10.53
2017-10-23T10:38:46.896Z,10.58
2017-10-23T10:39:46.867Z,10.59
2017-10-23T10:40:46.806Z,10.60
2017-10-23T10:41:46.775Z,10.71
2017-10-23T10:42:46.731Z,10.60
2017-10-23T10:43:46.697Z,10.74
2017-10-23T10:44:46.667Z,10.80
2017-10-23T10:45:46.625Z,10.78
2017-10-23T10:46:46.581Z,10.80
2017-10-23T10:47:46.558Z,10.86
2017-10-23T10:48:46.493Z,10.92
2017-10-23T10:49:46.471Z,10.96
2017-10-23T10:50:46.420Z,11.07
2017-10-23T10:51:46.400Z,11.16
2017-10-23T10:52:46.351Z,11.01
2017-10-23T10:53:46.312Z,11.06
2017-10-23T10:54:46.272Z,11.06
2017-10-23T10:55:46.248Z,11.16
2017-10-23T10:56:46.226Z,11.28
2017-10-23T10:57:46.175Z,11.39
2017-10-23T10:58:46.132Z,11.38
2017-10-23T10:59:46.082Z,11.52
2017-10-23T11:00:46.042Z,11.56
2017-10-23T11:01:46.016Z,11.83
2017-10-23T11:02:45.990Z,11.96
2017-10-23T11:03:45.929Z,12.08
2017-10-23T11:04:45.923Z,12.06
2017-10-23T11:05:45.854Z,12.19
2017-10-23T11:06:45.832Z,12.26
2017-10-23T11:07:45.799Z,12.29
2017-10-23T11:08:45.746Z,12.16
2017-10-23T11:09:45.737Z,12.31
2017-10-23T11:10:45.697Z,12.31
2017-10-23T11:11:45.637Z,12.27
2017-10-23T11:12:45.608Z,12.41
2017-10-23T11:13:45.581Z,12.27
2017-10-23T11:14:45.529Z,12.09
2017-10-23T11:15:45.486Z,11.93
2017-10-23T11:16:45.468Z,11.74
2017-10-23T11:17:45.421Z,11.77
2017-10-23T11:18:45.396Z,11.53
2017-10-23T11:19:45.343Z,11.28
2017-10-23T11:20:45.308Z,11.28
2017-10-23T11:21:45.274Z,11.29
2017-10-23T11:22:45.240Z,11.39
2017-10-23T11:23:45.197Z,11.50
2017-10-23T11:24:45.162Z,11.14
2017-10-23T11:25:45.153Z,11.27
2017-10-23T11:26:45.096Z,11.21
2017-10-23T11:27:45.065Z,11.29
2017-10-23T11:28:45.017Z,11.11
2017-10-23T11:29:44.990Z,11.14
2017-10-23T11:30:44.949Z,11.16
2017-10-23T11:31:44.929Z,11.10
2017-10-23T11:32:44.874Z,10.98
2017-10-23T11:33:44.837Z,10.96
2017-10-23T11:34:44.823Z,10.74
2017-10-23T11:35:44.759Z,10.76
2017-10-23T11:36:44.716Z,10.92
2017-10-23T11:37:44.700Z,10.96
2017-10-23T11:38:44.670Z,10.84
2017-10-23T11:39:44.607Z,10.76
2017-10-23T11:40:44.594Z,10.98
2017-10-23T11:41:44.533Z,11.09
2017-10-23T11:42:44.497Z,11.31
2017-10-23T11:43:44.479Z,11.25
2017-10-23T11:44:44.430Z,11.21
2017-10-23T11:45:44.380Z,11.14
2017-10-23T11:46:44.361Z,11.10
2017-10-23T11:47:44.304Z,11.14
2017-10-23T11:48:44.273Z,11.28
2017-10-23T11:49:44.228Z,11.25
2017-10-23T11:50:44.209Z,11.38
2017-10-23T11:51:44.166Z,11.25
2017-10-23T11:52:44.134Z,11.44
2017-10-23T11:53:44.095Z,11.56
2017-10-23T11:54:44.043Z,11.57
2017-10-23T11:55:44.006Z,11.77
2017-10-23T11:56:43.976Z,11.82
2017-10-23T11:57:43.922Z,11.56
2017-10-23T11:58:43.896Z,11.44
2017-10-23T11:59:43.861Z,11.24
2017-10-23T12:00:43.823Z,11.32
2017-10-23T12:01:43.793Z,11.32
2017-10-23T12:02:43.743Z,11.19
2017-10-23T12:03:43.715Z,11.13
2017-10-23T12:04:43.665Z,11.25
2017-10-23T12:05:43.641Z,11.36
2017-10-23T12:06:43.589Z,11.32
2017-10-23T12:07:43.552Z,11.70
2017-10-23T12:08:43.544Z,11.86
2017-10-23T12:09:43.479Z,12.13
2017-10-23T12:10:43.449Z,11.82
2017-10-23T12:11:43.406Z,11.85
2017-10-23T12:12:43.373Z,11.59
2017-10-23T12:13:43.330Z,11.54
2017-10-23T12:14:43.288Z,11.62
2017-10-23T12:15:43.269Z,11.71
2017-10-23T12:16:43.213Z,11.82
2017-10-23T12:17:43.192Z,11.90
2017-10-23T12:18:43.140Z,12.08
2017-10-23T12:19:43.103Z,12.26
2017-10-23T12:20:43.185Z,12.37
2017-10-23T12:21:43.037Z,12.45
2017-10-23T12:22:43.007Z,12.44
2017-10-23T12:23:42.977Z,12.62
2017-10-23T12:24:42.928Z,12.70
2017-10-23T12:25:42.894Z,12.75
2017-10-23T12:26:42.854Z,12.37
2017-10-23T12:27:42.832Z,12.16
2017-10-23T12:28:42.784Z,12.21
2017-10-23T12:29:42.750Z,12.02
2017-10-23T12:30:42.709Z,11.86
2017-10-23T12:31:42.688Z,11.82
2017-10-23T12:32:42.639Z,11.94
2017-10-23T12:33:42.601Z,12.08
2017-10-23T12:34:42.565Z,11.96
2017-10-23T12:35:42.527Z,12.05
2017-10-23T12:36:42.496Z,12.21
2017-10-23T12:37:42.457Z,11.87
2017-10-23T12:38:42.403Z,11.93
2017-10-23T12:39:42.378Z,11.87
2017-10-23T12:40:42.359Z,11.82
2017-10-23T12:41:42.340Z,11.75
2017-10-23T12:42:42.270Z,11.70
2017-10-23T12:43:42.229Z,11.82
2017-10-23T12:44:42.191Z,11.56
2017-10-23T12:45:42.175Z,11.70
2017-10-23T12:46:42.107Z,11.57
2017-10-23T12:47:42.087Z,11.52
2017-10-23T12:48:42.038Z,11.64
2017-10-23T12:49:42.005Z,11.70
2017-10-23T12:50:41.968Z,11.53
2017-10-23T12:51:41.943Z,11.53
2017-10-23T12:52:41.897Z,11.53
2017-10-23T12:53:41.853Z,11.54
2017-10-23T12:54:41.819Z,11.43
2017-10-23T12:55:41.807Z,11.39
2017-10-23T12:56:41.763Z,11.56
2017-10-23T12:57:41.732Z,11.57
2017-10-23T12:58:41.685Z,11.75
2017-10-23T12:59:41.647Z,11.75
2017-10-23T13:00:41.601Z,11.78
2017-10-23T13:01:41.569Z,11.65
2017-10-23T13:02:41.540Z,11.62
2017-10-23T13:03:41.486Z,11.57
2017-10-23T13:04:41.494Z,11.70
2017-10-23T13:05:41.416Z,11.75
2017-10-23T13:06:41.385Z,11.70
2017-10-23T13:07:41.351Z,11.57
2017-10-23T13:08:41.307Z,11.65
2017-10-23T13:09:41.272Z,11.77
2017-10-23T13:10:41.236Z,11.75
2017-10-23T13:11:41.204Z,11.75
2017-10-23T13:12:41.161Z,11.82
2017-10-23T13:13:41.116Z,11.72
2017-10-23T13:14:41.089Z,11.82
2017-10-23T13:15:41.059Z,11.71
2017-10-23T13:16:41.043Z,11.77
2017-10-23T13:17:40.986Z,11.71
2017-10-23T13:18:40.943Z,11.75
2017-10-23T13:19:40.922Z,11.71
2017-10-23T13:20:40.855Z,11.74
2017-10-23T13:21:40.816Z,11.70
2017-10-23T13:22:40.774Z,11.61
2017-10-23T13:23:40.731Z,11.59
2017-10-23T13:24:40.713Z,11.67
2017-10-23T13:25:40.668Z,11.59
2017-10-23T13:26:40.634Z,11.53
2017-10-23T13:27:40.575Z,11.52
2017-10-23T13:28:40.553Z,11.56
2017-10-23T13:29:40.509Z,11.49
2017-10-23T13:30:40.488Z,11.59
2017-10-23T13:31:40.445Z,11.52
2017-10-23T13:32:40.401Z,11.50
2017-10-23T13:33:40.388Z,11.56
2017-10-23T13:34:40.342Z,11.59
2017-10-23T13:35:40.278Z,11.52
2017-10-23T13:36:40.275Z,11.50
2017-10-23T13:37:40.211Z,11.52
2017-10-23T13:38:40.184Z,11.35
2017-10-23T13:39:40.148Z,11.47
2017-10-23T13:40:40.127Z,11.44
2017-10-23T13:41:40.074Z,11.39
2017-10-23T13:42:40.029Z,11.35
2017-10-23T13:43:39.996Z,11.24
2017-10-23T13:44:39.966Z,11.21
2017-10-23T13:45:39.926Z,11.17
2017-10-23T13:46:39.869Z,11.09
2017-10-23T13:47:39.848Z,11.07
2017-10-23T13:48:39.822Z,11.02
2017-10-23T13:49:39.755Z,11.02
2017-10-23T13:50:39.722Z,10.88
2017-10-23T13:51:39.722Z,10.81
2017-10-23T13:52:39.661Z,10.81
2017-10-23T13:53:39.622Z,10.71
2017-10-23T13:54:39.572Z,10.74
2017-10-23T13:55:39.530Z,10.74
2017-10-23T13:56:39.510Z,10.70
2017-10-23T13:57:39.489Z,10.71
2017-10-23T13:58:39.448Z,10.80
2017-10-23T13:59:39.446Z,10.81
2017-10-23T14:00:39.423Z,10.63
2017-10-23T14:01:39.303Z,10.74
2017-10-23T14:02:39.267Z,10.80
2017-10-23T14:03:39.241Z,10.88
2017-10-23T14:04:39.245Z,10.99
2017-10-23T14:05:39.156Z,11.09
2017-10-23T14:06:39.111Z,11.17
2017-10-23T14:07:39.059Z,11.25
2017-10-23T14:08:39.055Z,11.28
2017-10-23T14:09:39.010Z,11.24
2017-10-23T14:10:38.960Z,11.50
2017-10-23T14:11:38.957Z,11.17
2017-10-23T14:12:38.884Z,11.27
2017-10-23T14:13:38.827Z,11.38
2017-10-23T14:14:38.808Z,11.44
2017-10-23T14:15:38.771Z,11.43
2017-10-23T14:16:38.737Z,11.36
2017-10-23T14:17:38.674Z,11.39
2017-10-23T14:18:38.637Z,11.29
2017-10-23T14:19:38.608Z,11.16
2017-10-23T14:20:38.600Z,11.07
2017-10-23T14:21:38.540Z,11.21
2017-10-23T14:22:38.499Z,11.06
2017-10-23T14:23:38.471Z,10.99
2017-10-23T14:24:38.426Z,10.94
2017-10-23T14:25:38.388Z,10.89
2017-10-23T14:26:38.336Z,10.92
2017-10-23T14:27:38.306Z,10.99
2017-10-23T14:28:38.265Z,11.01
2017-10-23T14:29:38.217Z,10.91
2017-10-23T14:30:38.182Z,10.95